sensor_id;sensor_type;location;lat;lon;timestamp;P1;durP1;ratioP1;P2;durP2;ratioP2
72388;SDS011;60566;48.062;9.930;2023-05-07T00:00:17;9.57;;;6.65;;
72388;SDS011;60566;48.062;9.930;2023-05-07T00:02:43;11.07;;;7.15;;
72388;SDS011;60566;48.062;9.930;2023-05-07T00:05:08;12.23;;;7.38;;
72388;SDS011;60566;48.062;9.930;2023-05-07T00:07:33;11.55;;;7.30;;
72388;SDS011;60566;48.062;9.930;2023-05-07T00:09:59;8.93;;;6.72;;
72388;SDS011;60566;48.062;9.930;2023-05-07T00:12:24;9.55;;;6.97;;
72388;SDS011;60566;48.062;9.930;2023-05-07T00:14:49;10.73;;;7.75;;
72388;SDS011;60566;48.062;9.930;2023-05-07T00:17:16;11.40;;;7.13;;
72388;SDS011;60566;48.062;9.930;2023-05-07T00:19:42;10.68;;;7.07;;
72388;SDS011;60566;48.062;9.930;2023-05-07T00:22:07;10.43;;;7.30;;
72388;SDS011;60566;48.062;9.930;2023-05-07T00:24:33;10.05;;;7.22;;
72388;SDS011;60566;48.062;9.930;2023-05-07T00:26:58;11.50;;;7.25;;
72388;SDS011;60566;48.062;9.930;2023-05-07T00:29:24;9.85;;;7.30;;
72388;SDS011;60566;48.062;9.930;2023-05-07T00:31:49;12.40;;;7.45;;
72388;SDS011;60566;48.062;9.930;2023-05-07T00:34:16;10.30;;;7.32;;
72388;SDS011;60566;48.062;9.930;2023-05-07T00:36:41;10.52;;;7.45;;
72388;SDS011;60566;48.062;9.930;2023-05-07T00:39:06;10.10;;;6.97;;
72388;SDS011;60566;48.062;9.930;2023-05-07T00:41:32;11.60;;;7.65;;
72388;SDS011;60566;48.062;9.930;2023-05-07T00:43:57;9.82;;;7.22;;
72388;SDS011;60566;48.062;9.930;2023-05-07T00:46:23;10.55;;;7.40;;
72388;SDS011;60566;48.062;9.930;2023-05-07T00:48:48;9.15;;;6.75;;
72388;SDS011;60566;48.062;9.930;2023-05-07T00:51:16;10.00;;;6.70;;
72388;SDS011;60566;48.062;9.930;2023-05-07T00:53:41;10.35;;;6.20;;
72388;SDS011;60566;48.062;9.930;2023-05-07T00:56:07;11.07;;;6.40;;
72388;SDS011;60566;48.062;9.930;2023-05-07T00:58:32;9.98;;;6.35;;
72388;SDS011;60566;48.062;9.930;2023-05-07T01:00:58;11.60;;;6.80;;
72388;SDS011;60566;48.062;9.930;2023-05-07T01:03:23;9.27;;;6.45;;
72388;SDS011;60566;48.062;9.930;2023-05-07T01:05:49;9.00;;;6.95;;
72388;SDS011;60566;48.062;9.930;2023-05-07T01:08:16;9.90;;;7.00;;
72388;SDS011;60566;48.062;9.930;2023-05-07T01:10:42;10.80;;;6.97;;
72388;SDS011;60566;48.062;9.930;2023-05-07T01:13:08;9.48;;;6.70;;
72388;SDS011;60566;48.062;9.930;2023-05-07T01:15:34;10.40;;;6.72;;
72388;SDS011;60566;48.062;9.930;2023-05-07T01:17:59;12.43;;;6.95;;
72388;SDS011;60566;48.062;9.930;2023-05-07T01:20:25;11.05;;;7.18;;
72388;SDS011;60566;48.062;9.930;2023-05-07T01:22:52;8.35;;;6.15;;
72388;SDS011;60566;48.062;9.930;2023-05-07T01:25:18;8.77;;;6.65;;
72388;SDS011;60566;48.062;9.930;2023-05-07T01:27:43;12.05;;;6.88;;
72388;SDS011;60566;48.062;9.930;2023-05-07T01:30:09;10.73;;;6.38;;
72388;SDS011;60566;48.062;9.930;2023-05-07T01:32:36;9.80;;;5.93;;
72388;SDS011;60566;48.062;9.930;2023-05-07T01:35:05;8.75;;;6.97;;
72388;SDS011;60566;48.062;9.930;2023-05-07T01:37:33;9.73;;;6.63;;
72388;SDS011;60566;48.062;9.930;2023-05-07T01:40:00;10.93;;;6.38;;
72388;SDS011;60566;48.062;9.930;2023-05-07T01:42:26;9.63;;;6.95;;
72388;SDS011;60566;48.062;9.930;2023-05-07T01:44:51;9.07;;;6.50;;
72388;SDS011;60566;48.062;9.930;2023-05-07T01:47:17;10.30;;;7.68;;
72388;SDS011;60566;48.062;9.930;2023-05-07T01:49:42;11.27;;;6.90;;
72388;SDS011;60566;48.062;9.930;2023-05-07T01:52:08;9.90;;;6.90;;
72388;SDS011;60566;48.062;9.930;2023-05-07T01:54:34;8.77;;;7.15;;
72388;SDS011;60566;48.062;9.930;2023-05-07T01:57:01;9.20;;;6.40;;
72388;SDS011;60566;48.062;9.930;2023-05-07T01:59:26;11.85;;;6.50;;
72388;SDS011;60566;48.062;9.930;2023-05-07T02:01:52;10.95;;;6.47;;
72388;SDS011;60566;48.062;9.930;2023-05-07T02:04:17;10.30;;;6.72;;
72388;SDS011;60566;48.062;9.930;2023-05-07T02:06:42;10.27;;;7.10;;
72388;SDS011;60566;48.062;9.930;2023-05-07T02:09:08;11.32;;;7.43;;
72388;SDS011;60566;48.062;9.930;2023-05-07T02:11:33;10.18;;;7.78;;
72388;SDS011;60566;48.062;9.930;2023-05-07T02:14:00;7.75;;;6.20;;
72388;SDS011;60566;48.062;9.930;2023-05-07T02:16:25;11.27;;;7.00;;
72388;SDS011;60566;48.062;9.930;2023-05-07T02:18:51;11.18;;;7.72;;
72388;SDS011;60566;48.062;9.930;2023-05-07T02:21:16;9.35;;;7.05;;
72388;SDS011;60566;48.062;9.930;2023-05-07T02:23:41;10.25;;;7.22;;
72388;SDS011;60566;48.062;9.930;2023-05-07T02:26:07;11.35;;;7.10;;
72388;SDS011;60566;48.062;9.930;2023-05-07T02:28:32;10.20;;;6.13;;
72388;SDS011;60566;48.062;9.930;2023-05-07T02:30:59;10.07;;;7.43;;
72388;SDS011;60566;48.062;9.930;2023-05-07T02:33:24;9.25;;;6.82;;
72388;SDS011;60566;48.062;9.930;2023-05-07T02:35:50;9.88;;;6.53;;
72388;SDS011;60566;48.062;9.930;2023-05-07T02:38:15;11.73;;;6.85;;
72388;SDS011;60566;48.062;9.930;2023-05-07T02:40:40;9.35;;;6.95;;
72388;SDS011;60566;48.062;9.930;2023-05-07T02:43:06;9.70;;;6.70;;
72388;SDS011;60566;48.062;9.930;2023-05-07T02:45:31;9.88;;;7.65;;
72388;SDS011;60566;48.062;9.930;2023-05-07T02:47:58;10.23;;;7.05;;
72388;SDS011;60566;48.062;9.930;2023-05-07T02:50:23;11.20;;;7.55;;
72388;SDS011;60566;48.062;9.930;2023-05-07T02:52:49;10.63;;;6.82;;
72388;SDS011;60566;48.062;9.930;2023-05-07T02:55:14;10.02;;;7.20;;
72388;SDS011;60566;48.062;9.930;2023-05-07T02:57:40;10.68;;;6.30;;
72388;SDS011;60566;48.062;9.930;2023-05-07T03:00:12;8.68;;;6.15;;
72388;SDS011;60566;48.062;9.930;2023-05-07T03:02:38;8.27;;;5.22;;
72388;SDS011;60566;48.062;9.930;2023-05-07T03:05:06;7.93;;;5.28;;
72388;SDS011;60566;48.062;9.930;2023-05-07T03:07:32;11.15;;;6.40;;
72388;SDS011;60566;48.062;9.930;2023-05-07T03:09:57;10.07;;;6.20;;
72388;SDS011;60566;48.062;9.930;2023-05-07T03:12:22;12.15;;;5.50;;
72388;SDS011;60566;48.062;9.930;2023-05-07T03:14:48;6.32;;;5.07;;
72388;SDS011;60566;48.062;9.930;2023-05-07T03:17:13;8.27;;;4.70;;
72388;SDS011;60566;48.062;9.930;2023-05-07T03:19:38;7.43;;;4.82;;
72388;SDS011;60566;48.062;9.930;2023-05-07T03:22:05;7.25;;;4.78;;
72388;SDS011;60566;48.062;9.930;2023-05-07T03:24:30;8.80;;;4.55;;
72388;SDS011;60566;48.062;9.930;2023-05-07T03:26:56;6.78;;;4.30;;
72388;SDS011;60566;48.062;9.930;2023-05-07T03:29:21;9.80;;;4.60;;
72388;SDS011;60566;48.062;9.930;2023-05-07T03:31:47;6.68;;;4.82;;
72388;SDS011;60566;48.062;9.930;2023-05-07T03:34:12;7.13;;;4.78;;
72388;SDS011;60566;48.062;9.930;2023-05-07T03:36:37;5.50;;;3.78;;
72388;SDS011;60566;48.062;9.930;2023-05-07T03:39:04;8.07;;;4.85;;
72388;SDS011;60566;48.062;9.930;2023-05-07T03:41:29;6.00;;;4.43;;
72388;SDS011;60566;48.062;9.930;2023-05-07T03:43:55;5.13;;;4.07;;
72388;SDS011;60566;48.062;9.930;2023-05-07T03:46:20;7.63;;;4.63;;
72388;SDS011;60566;48.062;9.930;2023-05-07T03:48:45;7.63;;;4.40;;
72388;SDS011;60566;48.062;9.930;2023-05-07T03:51:11;9.55;;;5.10;;
72388;SDS011;60566;48.062;9.930;2023-05-07T03:53:36;6.90;;;4.82;;
72388;SDS011;60566;48.062;9.930;2023-05-07T03:56:03;7.68;;;5.05;;
72388;SDS011;60566;48.062;9.930;2023-05-07T03:58:29;6.95;;;5.00;;
72388;SDS011;60566;48.062;9.930;2023-05-07T04:00:54;7.97;;;5.10;;
72388;SDS011;60566;48.062;9.930;2023-05-07T04:03:19;10.38;;;5.05;;
72388;SDS011;60566;48.062;9.930;2023-05-07T04:05:45;8.00;;;4.80;;
72388;SDS011;60566;48.062;9.930;2023-05-07T04:08:10;9.60;;;4.70;;
72388;SDS011;60566;48.062;9.930;2023-05-07T04:10:36;7.25;;;5.00;;
72388;SDS011;60566;48.062;9.930;2023-05-07T04:13:02;7.32;;;4.50;;
72388;SDS011;60566;48.062;9.930;2023-05-07T04:15:28;7.95;;;5.10;;
72388;SDS011;60566;48.062;9.930;2023-05-07T04:17:53;8.75;;;5.45;;
72388;SDS011;60566;48.062;9.930;2023-05-07T04:20:19;6.65;;;3.95;;
72388;SDS011;60566;48.062;9.930;2023-05-07T04:22:44;6.05;;;4.22;;
72388;SDS011;60566;48.062;9.930;2023-05-07T04:25:09;6.70;;;4.20;;
72388;SDS011;60566;48.062;9.930;2023-05-07T04:27:35;7.50;;;4.22;;
72388;SDS011;60566;48.062;9.930;2023-05-07T04:30:02;7.95;;;4.25;;
72388;SDS011;60566;48.062;9.930;2023-05-07T04:32:27;8.13;;;5.07;;
72388;SDS011;60566;48.062;9.930;2023-05-07T04:34:53;6.82;;;4.80;;
72388;SDS011;60566;48.062;9.930;2023-05-07T04:37:18;12.25;;;5.05;;
72388;SDS011;60566;48.062;9.930;2023-05-07T04:39:44;6.40;;;4.40;;
72388;SDS011;60566;48.062;9.930;2023-05-07T04:42:09;7.35;;;4.25;;
72388;SDS011;60566;48.062;9.930;2023-05-07T04:44:39;7.07;;;4.45;;
72388;SDS011;60566;48.062;9.930;2023-05-07T04:47:06;7.13;;;4.30;;
72388;SDS011;60566;48.062;9.930;2023-05-07T04:49:31;6.15;;;4.68;;
72388;SDS011;60566;48.062;9.930;2023-05-07T04:51:57;8.90;;;5.43;;
72388;SDS011;60566;48.062;9.930;2023-05-07T04:54:22;8.02;;;5.10;;
72388;SDS011;60566;48.062;9.930;2023-05-07T04:56:47;8.00;;;4.90;;
72388;SDS011;60566;48.062;9.930;2023-05-07T04:59:13;9.13;;;5.00;;
72388;SDS011;60566;48.062;9.930;2023-05-07T05:01:38;8.98;;;5.82;;
72388;SDS011;60566;48.062;9.930;2023-05-07T05:04:05;11.15;;;7.07;;
72388;SDS011;60566;48.062;9.930;2023-05-07T05:06:30;9.07;;;6.15;;
72388;SDS011;60566;48.062;9.930;2023-05-07T05:08:56;10.27;;;6.15;;
72388;SDS011;60566;48.062;9.930;2023-05-07T05:11:21;9.43;;;6.43;;
72388;SDS011;60566;48.062;9.930;2023-05-07T05:13:46;7.57;;;5.47;;
72388;SDS011;60566;48.062;9.930;2023-05-07T05:16:12;7.82;;;5.45;;
72388;SDS011;60566;48.062;9.930;2023-05-07T05:18:37;9.38;;;6.40;;
72388;SDS011;60566;48.062;9.930;2023-05-07T05:21:04;8.27;;;6.20;;
72388;SDS011;60566;48.062;9.930;2023-05-07T05:23:29;8.45;;;5.40;;
72388;SDS011;60566;48.062;9.930;2023-05-07T05:25:55;9.55;;;6.05;;
72388;SDS011;60566;48.062;9.930;2023-05-07T05:28:20;12.98;;;6.70;;
72388;SDS011;60566;48.062;9.930;2023-05-07T05:30:46;9.52;;;6.40;;
72388;SDS011;60566;48.062;9.930;2023-05-07T05:33:11;9.70;;;5.50;;
72388;SDS011;60566;48.062;9.930;2023-05-07T05:35:37;9.13;;;5.88;;
72388;SDS011;60566;48.062;9.930;2023-05-07T05:38:03;7.93;;;5.22;;
72388;SDS011;60566;48.062;9.930;2023-05-07T05:40:29;8.25;;;5.30;;
72388;SDS011;60566;48.062;9.930;2023-05-07T05:42:54;10.13;;;5.25;;
72388;SDS011;60566;48.062;9.930;2023-05-07T05:45:19;9.65;;;5.63;;
72388;SDS011;60566;48.062;9.930;2023-05-07T05:47:45;9.68;;;6.50;;
72388;SDS011;60566;48.062;9.930;2023-05-07T05:50:10;10.38;;;6.80;;
72388;SDS011;60566;48.062;9.930;2023-05-07T05:52:35;9.93;;;6.57;;
72388;SDS011;60566;48.062;9.930;2023-05-07T05:55:02;11.27;;;6.43;;
72388;SDS011;60566;48.062;9.930;2023-05-07T05:57:28;11.35;;;6.75;;
72388;SDS011;60566;48.062;9.930;2023-05-07T05:59:53;10.80;;;6.63;;
72388;SDS011;60566;48.062;9.930;2023-05-07T06:02:19;12.48;;;6.50;;
72388;SDS011;60566;48.062;9.930;2023-05-07T06:04:44;9.75;;;6.82;;
72388;SDS011;60566;48.062;9.930;2023-05-07T06:07:09;9.55;;;6.60;;
72388;SDS011;60566;48.062;9.930;2023-05-07T06:09:35;10.45;;;6.93;;
72388;SDS011;60566;48.062;9.930;2023-05-07T06:12:02;10.30;;;6.97;;
72388;SDS011;60566;48.062;9.930;2023-05-07T06:14:27;10.05;;;7.20;;
72388;SDS011;60566;48.062;9.930;2023-05-07T06:16:53;9.13;;;6.68;;
72388;SDS011;60566;48.062;9.930;2023-05-07T06:19:18;10.13;;;6.70;;
72388;SDS011;60566;48.062;9.930;2023-05-07T06:21:43;11.50;;;6.78;;
72388;SDS011;60566;48.062;9.930;2023-05-07T06:24:09;11.65;;;7.07;;
72388;SDS011;60566;48.062;9.930;2023-05-07T06:26:34;10.77;;;7.07;;
72388;SDS011;60566;48.062;9.930;2023-05-07T06:29:01;12.15;;;6.82;;
72388;SDS011;60566;48.062;9.930;2023-05-07T06:31:29;9.10;;;5.95;;
72388;SDS011;60566;48.062;9.930;2023-05-07T06:33:55;9.98;;;6.22;;
72388;SDS011;60566;48.062;9.930;2023-05-07T06:36:20;10.00;;;6.75;;
72388;SDS011;60566;48.062;9.930;2023-05-07T06:38:46;8.50;;;6.28;;
72388;SDS011;60566;48.062;9.930;2023-05-07T06:41:11;8.27;;;5.50;;
72388;SDS011;60566;48.062;9.930;2023-05-07T06:43:36;7.57;;;5.15;;
72388;SDS011;60566;48.062;9.930;2023-05-07T06:46:03;7.53;;;4.60;;
72388;SDS011;60566;48.062;9.930;2023-05-07T06:48:29;8.05;;;4.80;;
72388;SDS011;60566;48.062;9.930;2023-05-07T06:50:54;7.63;;;5.03;;
72388;SDS011;60566;48.062;9.930;2023-05-07T06:53:19;6.68;;;4.45;;
72388;SDS011;60566;48.062;9.930;2023-05-07T06:55:45;8.63;;;5.20;;
72388;SDS011;60566;48.062;9.930;2023-05-07T06:58:10;7.43;;;4.35;;
72388;SDS011;60566;48.062;9.930;2023-05-07T07:00:36;8.00;;;5.00;;
72388;SDS011;60566;48.062;9.930;2023-05-07T07:03:02;7.78;;;5.18;;
72388;SDS011;60566;48.062;9.930;2023-05-07T07:05:28;8.75;;;4.40;;
72388;SDS011;60566;48.062;9.930;2023-05-07T07:07:53;7.63;;;4.63;;
72388;SDS011;60566;48.062;9.930;2023-05-07T07:10:18;6.60;;;4.72;;
72388;SDS011;60566;48.062;9.930;2023-05-07T07:12:44;6.57;;;4.38;;
72388;SDS011;60566;48.062;9.930;2023-05-07T07:15:10;7.10;;;4.82;;
72388;SDS011;60566;48.062;9.930;2023-05-07T07:17:35;6.38;;;4.35;;
72388;SDS011;60566;48.062;9.930;2023-05-07T07:20:02;8.27;;;4.47;;
72388;SDS011;60566;48.062;9.930;2023-05-07T07:22:28;6.75;;;4.72;;
72388;SDS011;60566;48.062;9.930;2023-05-07T07:24:54;6.90;;;4.22;;
72388;SDS011;60566;48.062;9.930;2023-05-07T07:27:19;6.53;;;4.43;;
72388;SDS011;60566;48.062;9.930;2023-05-07T07:29:44;8.15;;;4.65;;
72388;SDS011;60566;48.062;9.930;2023-05-07T07:32:10;9.68;;;4.45;;
72388;SDS011;60566;48.062;9.930;2023-05-07T07:34:35;5.45;;;3.90;;
72388;SDS011;60566;48.062;9.930;2023-05-07T07:37:02;6.25;;;4.40;;
72388;SDS011;60566;48.062;9.930;2023-05-07T07:39:27;5.53;;;3.95;;
72388;SDS011;60566;48.062;9.930;2023-05-07T07:41:53;7.63;;;4.32;;
72388;SDS011;60566;48.062;9.930;2023-05-07T07:44:18;7.32;;;3.72;;
72388;SDS011;60566;48.062;9.930;2023-05-07T07:46:44;7.90;;;5.22;;
72388;SDS011;60566;48.062;9.930;2023-05-07T07:49:09;7.28;;;4.38;;
72388;SDS011;60566;48.062;9.930;2023-05-07T07:51:34;6.97;;;4.20;;
72388;SDS011;60566;48.062;9.930;2023-05-07T07:54:01;6.90;;;4.22;;
72388;SDS011;60566;48.062;9.930;2023-05-07T07:56:27;8.80;;;4.93;;
72388;SDS011;60566;48.062;9.930;2023-05-07T07:58:52;5.90;;;3.95;;
72388;SDS011;60566;48.062;9.930;2023-05-07T08:01:17;5.82;;;3.60;;
72388;SDS011;60566;48.062;9.930;2023-05-07T08:03:43;8.98;;;4.00;;
72388;SDS011;60566;48.062;9.930;2023-05-07T08:06:08;7.75;;;3.55;;
72388;SDS011;60566;48.062;9.930;2023-05-07T08:08:34;6.22;;;3.45;;
72388;SDS011;60566;48.062;9.930;2023-05-07T08:11:00;5.40;;;3.72;;
72388;SDS011;60566;48.062;9.930;2023-05-07T08:13:26;5.80;;;3.97;;
72388;SDS011;60566;48.062;9.930;2023-05-07T08:15:51;6.57;;;3.67;;
72388;SDS011;60566;48.062;9.930;2023-05-07T08:18:17;5.07;;;3.28;;
72388;SDS011;60566;48.062;9.930;2023-05-07T08:20:42;5.70;;;3.47;;
72388;SDS011;60566;48.062;9.930;2023-05-07T08:23:07;6.30;;;4.30;;
72388;SDS011;60566;48.062;9.930;2023-05-07T08:25:33;6.50;;;4.22;;
72388;SDS011;60566;48.062;9.930;2023-05-07T08:28:00;7.25;;;4.15;;
72388;SDS011;60566;48.062;9.930;2023-05-07T08:30:25;6.38;;;4.07;;
72388;SDS011;60566;48.062;9.930;2023-05-07T08:32:51;5.65;;;3.70;;
72388;SDS011;60566;48.062;9.930;2023-05-07T08:35:16;6.15;;;3.90;;
72388;SDS011;60566;48.062;9.930;2023-05-07T08:37:41;8.23;;;4.20;;
72388;SDS011;60566;48.062;9.930;2023-05-07T08:40:07;7.57;;;4.55;;
72388;SDS011;60566;48.062;9.930;2023-05-07T08:42:34;6.28;;;3.90;;
72388;SDS011;60566;48.062;9.930;2023-05-07T08:45:02;5.38;;;3.97;;
72388;SDS011;60566;48.062;9.930;2023-05-07T08:47:29;5.85;;;3.67;;
72388;SDS011;60566;48.062;9.930;2023-05-07T08:49:59;6.57;;;3.90;;
72388;SDS011;60566;48.062;9.930;2023-05-07T08:52:24;6.63;;;3.88;;
72388;SDS011;60566;48.062;9.930;2023-05-07T08:54:51;6.07;;;4.30;;
72388;SDS011;60566;48.062;9.930;2023-05-07T08:57:16;8.07;;;4.28;;
72388;SDS011;60566;48.062;9.930;2023-05-07T08:59:42;9.25;;;4.03;;
72388;SDS011;60566;48.062;9.930;2023-05-07T09:02:09;5.05;;;3.78;;
72388;SDS011;60566;48.062;9.930;2023-05-07T09:04:35;5.90;;;3.75;;
72388;SDS011;60566;48.062;9.930;2023-05-07T09:07:00;8.35;;;3.95;;
72388;SDS011;60566;48.062;9.930;2023-05-07T09:09:26;6.30;;;3.60;;
72388;SDS011;60566;48.062;9.930;2023-05-07T09:11:56;7.38;;;4.07;;
72388;SDS011;60566;48.062;9.930;2023-05-07T09:14:22;6.53;;;3.88;;
72388;SDS011;60566;48.062;9.930;2023-05-07T09:16:47;5.75;;;3.60;;
72388;SDS011;60566;48.062;9.930;2023-05-07T09:19:21;5.97;;;3.80;;
72388;SDS011;60566;48.062;9.930;2023-05-07T09:21:47;5.68;;;3.88;;
72388;SDS011;60566;48.062;9.930;2023-05-07T09:24:15;8.32;;;4.60;;
72388;SDS011;60566;48.062;9.930;2023-05-07T09:26:40;7.25;;;3.80;;
72388;SDS011;60566;48.062;9.930;2023-05-07T09:29:06;7.13;;;4.38;;
72388;SDS011;60566;48.062;9.930;2023-05-07T09:31:35;5.95;;;3.13;;
72388;SDS011;60566;48.062;9.930;2023-05-07T09:34:01;7.47;;;4.38;;
72388;SDS011;60566;48.062;9.930;2023-05-07T09:36:28;5.93;;;3.58;;
72388;SDS011;60566;48.062;9.930;2023-05-07T09:38:53;7.95;;;4.38;;
72388;SDS011;60566;48.062;9.930;2023-05-07T09:41:19;6.22;;;3.67;;
72388;SDS011;60566;48.062;9.930;2023-05-07T09:43:44;5.97;;;4.03;;
72388;SDS011;60566;48.062;9.930;2023-05-07T09:46:11;6.18;;;4.25;;
72388;SDS011;60566;48.062;9.930;2023-05-07T09:48:38;5.40;;;3.50;;
72388;SDS011;60566;48.062;9.930;2023-05-07T09:51:06;6.75;;;4.60;;
72388;SDS011;60566;48.062;9.930;2023-05-07T09:53:41;7.25;;;3.38;;
72388;SDS011;60566;48.062;9.930;2023-05-07T09:56:07;7.25;;;4.28;;
72388;SDS011;60566;48.062;9.930;2023-05-07T09:58:32;8.32;;;4.28;;
72388;SDS011;60566;48.062;9.930;2023-05-07T10:00:58;7.25;;;4.00;;
72388;SDS011;60566;48.062;9.930;2023-05-07T10:03:24;6.15;;;3.72;;
72388;SDS011;60566;48.062;9.930;2023-05-07T10:05:52;5.75;;;3.78;;
72388;SDS011;60566;48.062;9.930;2023-05-07T10:08:18;6.88;;;3.65;;
72388;SDS011;60566;48.062;9.930;2023-05-07T10:10:46;5.85;;;3.10;;
72388;SDS011;60566;48.062;9.930;2023-05-07T10:15:47;5.18;;;3.00;;
72388;SDS011;60566;48.062;9.930;2023-05-07T10:18:12;7.43;;;3.97;;
72388;SDS011;60566;48.062;9.930;2023-05-07T10:20:38;6.20;;;3.88;;
72388;SDS011;60566;48.062;9.930;2023-05-07T10:23:04;6.95;;;4.05;;
72388;SDS011;60566;48.062;9.930;2023-05-07T10:25:30;5.55;;;3.50;;
72388;SDS011;60566;48.062;9.930;2023-05-07T10:28:00;5.40;;;3.28;;
72388;SDS011;60566;48.062;9.930;2023-05-07T10:30:30;4.75;;;3.20;;
72388;SDS011;60566;48.062;9.930;2023-05-07T10:33:01;8.00;;;3.88;;
72388;SDS011;60566;48.062;9.930;2023-05-07T10:35:29;7.43;;;4.18;;
72388;SDS011;60566;48.062;9.930;2023-05-07T10:37:56;4.35;;;3.03;;
72388;SDS011;60566;48.062;9.930;2023-05-07T10:40:22;5.07;;;3.30;;
72388;SDS011;60566;48.062;9.930;2023-05-07T10:42:54;7.70;;;3.40;;
72388;SDS011;60566;48.062;9.930;2023-05-07T10:45:22;4.50;;;2.40;;
72388;SDS011;60566;48.062;9.930;2023-05-07T10:50:40;4.90;;;2.95;;
72388;SDS011;60566;48.062;9.930;2023-05-07T10:53:22;4.70;;;3.22;;
72388;SDS011;60566;48.062;9.930;2023-05-07T10:55:49;5.43;;;3.50;;
72388;SDS011;60566;48.062;9.930;2023-05-07T10:58:25;5.22;;;3.53;;
72388;SDS011;60566;48.062;9.930;2023-05-07T11:00:56;5.32;;;3.50;;
72388;SDS011;60566;48.062;9.930;2023-05-07T11:03:22;6.50;;;3.40;;
72388;SDS011;60566;48.062;9.930;2023-05-07T11:06:08;7.40;;;3.50;;
72388;SDS011;60566;48.062;9.930;2023-05-07T11:11:18;6.20;;;3.33;;
72388;SDS011;60566;48.062;9.930;2023-05-07T11:13:44;4.57;;;3.15;;
72388;SDS011;60566;48.062;9.930;2023-05-07T11:16:18;5.22;;;3.13;;
72388;SDS011;60566;48.062;9.930;2023-05-07T11:21:12;5.07;;;3.15;;
72388;SDS011;60566;48.062;9.930;2023-05-07T11:23:57;4.78;;;3.20;;
72388;SDS011;60566;48.062;9.930;2023-05-07T11:26:23;6.38;;;3.42;;
72388;SDS011;60566;48.062;9.930;2023-05-07T11:28:49;6.18;;;3.78;;
72388;SDS011;60566;48.062;9.930;2023-05-07T11:31:14;5.28;;;3.58;;
72388;SDS011;60566;48.062;9.930;2023-05-07T11:33:47;6.13;;;3.33;;
72388;SDS011;60566;48.062;9.930;2023-05-07T11:36:12;6.25;;;2.80;;
72388;SDS011;60566;48.062;9.930;2023-05-07T11:38:38;5.15;;;3.30;;
72388;SDS011;60566;48.062;9.930;2023-05-07T11:41:03;6.43;;;3.70;;
72388;SDS011;60566;48.062;9.930;2023-05-07T11:43:29;5.60;;;3.72;;
72388;SDS011;60566;48.062;9.930;2023-05-07T11:45:54;7.13;;;3.58;;
72388;SDS011;60566;48.062;9.930;2023-05-07T11:48:21;6.38;;;3.60;;
72388;SDS011;60566;48.062;9.930;2023-05-07T11:50:50;7.22;;;3.05;;
72388;SDS011;60566;48.062;9.930;2023-05-07T11:53:15;4.93;;;3.47;;
72388;SDS011;60566;48.062;9.930;2023-05-07T11:55:41;5.22;;;3.33;;
72388;SDS011;60566;48.062;9.930;2023-05-07T11:58:06;5.53;;;2.97;;
72388;SDS011;60566;48.062;9.930;2023-05-07T12:00:31;5.10;;;2.88;;
72388;SDS011;60566;48.062;9.930;2023-05-07T12:03:02;4.82;;;2.72;;
72388;SDS011;60566;48.062;9.930;2023-05-07T12:05:29;5.63;;;3.13;;
72388;SDS011;60566;48.062;9.930;2023-05-07T12:07:55;4.40;;;2.95;;
72388;SDS011;60566;48.062;9.930;2023-05-07T12:10:21;5.53;;;2.95;;
72388;SDS011;60566;48.062;9.930;2023-05-07T12:12:47;5.15;;;3.05;;
72388;SDS011;60566;48.062;9.930;2023-05-07T12:15:15;4.85;;;2.70;;
72388;SDS011;60566;48.062;9.930;2023-05-07T12:17:40;6.10;;;3.47;;
72388;SDS011;60566;48.062;9.930;2023-05-07T12:20:06;6.03;;;3.53;;
72388;SDS011;60566;48.062;9.930;2023-05-07T12:22:34;5.75;;;3.42;;
72388;SDS011;60566;48.062;9.930;2023-05-07T12:24:59;6.70;;;3.38;;
72388;SDS011;60566;48.062;9.930;2023-05-07T12:27:25;4.72;;;2.88;;
72388;SDS011;60566;48.062;9.930;2023-05-07T12:29:51;4.22;;;2.60;;
72388;SDS011;60566;48.062;9.930;2023-05-07T12:32:16;6.10;;;3.70;;
72388;SDS011;60566;48.062;9.930;2023-05-07T12:34:43;5.97;;;3.13;;
72388;SDS011;60566;48.062;9.930;2023-05-07T12:37:08;5.18;;;3.40;;
72388;SDS011;60566;48.062;9.930;2023-05-07T12:39:36;5.45;;;3.33;;
72388;SDS011;60566;48.062;9.930;2023-05-07T12:42:01;4.40;;;2.90;;
72388;SDS011;60566;48.062;9.930;2023-05-07T12:44:28;5.47;;;2.80;;
72388;SDS011;60566;48.062;9.930;2023-05-07T12:46:54;6.82;;;3.70;;
72388;SDS011;60566;48.062;9.930;2023-05-07T12:49:20;6.30;;;3.03;;
72388;SDS011;60566;48.062;9.930;2023-05-07T12:51:46;5.63;;;3.15;;
72388;SDS011;60566;48.062;9.930;2023-05-07T12:54:11;4.80;;;3.38;;
72388;SDS011;60566;48.062;9.930;2023-05-07T12:56:39;5.80;;;3.42;;
72388;SDS011;60566;48.062;9.930;2023-05-07T12:59:04;5.70;;;3.78;;
72388;SDS011;60566;48.062;9.930;2023-05-07T13:01:30;4.35;;;2.95;;
72388;SDS011;60566;48.062;9.930;2023-05-07T13:03:56;5.28;;;3.42;;
72388;SDS011;60566;48.062;9.930;2023-05-07T13:06:25;4.47;;;2.80;;
72388;SDS011;60566;48.062;9.930;2023-05-07T13:08:50;4.80;;;3.30;;
72388;SDS011;60566;48.062;9.930;2023-05-07T13:11:16;5.07;;;3.33;;
72388;SDS011;60566;48.062;9.930;2023-05-07T13:13:42;5.15;;;3.10;;
72388;SDS011;60566;48.062;9.930;2023-05-07T13:16:09;4.55;;;3.25;;
72388;SDS011;60566;48.062;9.930;2023-05-07T13:18:35;5.05;;;3.30;;
72388;SDS011;60566;48.062;9.930;2023-05-07T13:21:01;5.38;;;2.97;;
72388;SDS011;60566;48.062;9.930;2023-05-07T13:23:26;4.90;;;3.15;;
72388;SDS011;60566;48.062;9.930;2023-05-07T13:25:52;5.10;;;3.38;;
72388;SDS011;60566;48.062;9.930;2023-05-07T13:28:17;5.10;;;2.95;;
72388;SDS011;60566;48.062;9.930;2023-05-07T13:30:44;4.43;;;2.90;;
72388;SDS011;60566;48.062;9.930;2023-05-07T13:33:09;4.30;;;2.90;;
72388;SDS011;60566;48.062;9.930;2023-05-07T13:35:35;4.22;;;2.83;;
72388;SDS011;60566;48.062;9.930;2023-05-07T13:38:00;6.20;;;3.22;;
72388;SDS011;60566;48.062;9.930;2023-05-07T13:40:26;5.45;;;2.88;;
72388;SDS011;60566;48.062;9.930;2023-05-07T13:42:51;6.53;;;2.95;;
72388;SDS011;60566;48.062;9.930;2023-05-07T13:45:17;4.05;;;2.75;;
72388;SDS011;60566;48.062;9.930;2023-05-07T13:47:44;4.38;;;2.80;;
72388;SDS011;60566;48.062;9.930;2023-05-07T13:50:10;4.15;;;2.53;;
72388;SDS011;60566;48.062;9.930;2023-05-07T13:52:36;4.10;;;2.78;;
72388;SDS011;60566;48.062;9.930;2023-05-07T13:55:01;3.83;;;2.78;;
72388;SDS011;60566;48.062;9.930;2023-05-07T13:57:26;4.20;;;2.67;;
72388;SDS011;60566;48.062;9.930;2023-05-07T13:59:52;4.60;;;3.20;;
72388;SDS011;60566;48.062;9.930;2023-05-07T14:02:17;5.47;;;2.60;;
72388;SDS011;60566;48.062;9.930;2023-05-07T14:04:47;4.97;;;3.00;;
72388;SDS011;60566;48.062;9.930;2023-05-07T14:07:12;4.93;;;3.03;;
72388;SDS011;60566;48.062;9.930;2023-05-07T14:09:37;6.72;;;3.17;;
72388;SDS011;60566;48.062;9.930;2023-05-07T14:12:03;4.20;;;2.58;;
72388;SDS011;60566;48.062;9.930;2023-05-07T14:14:29;4.80;;;2.85;;
72388;SDS011;60566;48.062;9.930;2023-05-07T14:16:54;4.65;;;2.60;;
72388;SDS011;60566;48.062;9.930;2023-05-07T14:19:20;4.00;;;2.83;;
72388;SDS011;60566;48.062;9.930;2023-05-07T14:21:47;5.47;;;2.70;;
72388;SDS011;60566;48.062;9.930;2023-05-07T14:24:12;4.43;;;2.78;;
72388;SDS011;60566;48.062;9.930;2023-05-07T14:26:37;4.63;;;2.70;;
72388;SDS011;60566;48.062;9.930;2023-05-07T14:29:03;4.50;;;2.45;;
72388;SDS011;60566;48.062;9.930;2023-05-07T14:31:28;6.07;;;3.05;;
72388;SDS011;60566;48.062;9.930;2023-05-07T14:33:54;5.30;;;2.95;;
72388;SDS011;60566;48.062;9.930;2023-05-07T14:36:19;4.63;;;2.80;;
72388;SDS011;60566;48.062;9.930;2023-05-07T14:38:46;4.47;;;3.05;;
72388;SDS011;60566;48.062;9.930;2023-05-07T14:41:12;6.53;;;3.00;;
72388;SDS011;60566;48.062;9.930;2023-05-07T14:43:37;10.15;;;3.35;;
72388;SDS011;60566;48.062;9.930;2023-05-07T14:46:03;4.55;;;2.78;;
72388;SDS011;60566;48.062;9.930;2023-05-07T14:48:28;4.60;;;2.92;;